createdAt,value
2018-07-07T00:00:47.382Z,73.00
2018-07-07T00:03:17.814Z,69.40
2018-07-07T00:05:47.756Z,71.00
2018-07-07T00:08:17.382Z,69.50
2018-07-07T00:10:56.843Z,68.20
2018-07-07T00:13:26.636Z,69.10
2018-07-07T00:15:56.368Z,66.80
2018-07-07T00:18:26.001Z,68.50
2018-07-07T00:20:55.536Z,67.50
2018-07-07T00:23:25.066Z,64.70
2018-07-07T00:25:54.662Z,66.20
2018-07-07T00:28:25.238Z,66.30
2018-07-07T00:33:24.920Z,64.70
2018-07-07T00:35:54.484Z,63.00
2018-07-07T00:38:24.032Z,61.80
2018-07-07T00:40:53.584Z,62.60
2018-07-07T00:43:26.749Z,62.00
2018-07-07T00:45:56.950Z,62.40
2018-07-07T00:48:27.186Z,62.70
2018-07-07T00:50:56.980Z,63.40
2018-07-07T00:53:26.514Z,62.90
2018-07-07T00:55:55.964Z,62.70
2018-07-07T00:58:26.202Z,63.70
2018-07-07T01:00:55.832Z,64.10
2018-07-07T01:03:25.353Z,65.60
2018-07-07T01:05:55.019Z,65.90
2018-07-07T01:08:24.596Z,64.80
2018-07-07T01:10:54.124Z,67.00
2018-07-07T01:15:52.589Z,66.10
2018-07-07T01:18:23.601Z,66.30
2018-07-07T01:20:53.328Z,65.00
2018-07-07T01:23:23.316Z,66.40
2018-07-07T01:25:52.783Z,66.40
2018-07-07T01:28:22.297Z,67.80
2018-07-07T01:30:51.763Z,68.10
2018-07-07T01:33:21.999Z,67.60
2018-07-07T01:35:52.175Z,68.70
2018-07-07T01:38:21.620Z,68.70
2018-07-07T01:40:51.582Z,69.30
2018-07-07T01:43:21.126Z,69.10
2018-07-07T01:45:51.071Z,68.90
2018-07-07T01:48:21.685Z,70.60
2018-07-07T01:50:52.038Z,70.00
2018-07-07T01:53:21.565Z,69.80
2018-07-07T01:55:51.684Z,69.60
2018-07-07T01:58:21.208Z,70.50
2018-07-07T02:00:50.709Z,70.50
2018-07-07T02:03:20.261Z,70.50
2018-07-07T02:05:50.006Z,70.70
2018-07-07T02:08:19.723Z,70.10
2018-07-07T02:10:50.297Z,69.00
2018-07-07T02:13:19.843Z,68.30
2018-07-07T02:15:50.110Z,69.20
2018-07-07T02:18:20.300Z,69.50
2018-07-07T02:20:50.077Z,70.10
2018-07-07T02:23:20.802Z,70.70
2018-07-07T02:25:50.678Z,71.70
2018-07-07T02:28:21.005Z,72.20
2018-07-07T02:30:50.658Z,72.60
2018-07-07T02:33:20.659Z,72.80
2018-07-07T02:38:19.315Z,73.00
2018-07-07T02:40:48.934Z,74.20
2018-07-07T02:43:19.360Z,72.30
2018-07-07T02:45:48.877Z,72.80
2018-07-07T02:48:18.366Z,71.80
2018-07-07T02:50:48.050Z,71.90
2018-07-07T02:53:18.119Z,71.90
2018-07-07T02:55:47.761Z,72.40
2018-07-07T02:58:17.654Z,71.70
2018-07-07T03:00:47.101Z,71.60
2018-07-07T03:03:16.730Z,72.00
2018-07-07T03:05:46.157Z,72.00
2018-07-07T03:08:15.595Z,70.10
2018-07-07T03:10:45.254Z,70.70
2018-07-07T03:13:14.729Z,70.80
2018-07-07T03:15:44.476Z,71.00
2018-07-07T03:18:14.212Z,71.80
2018-07-07T03:20:44.106Z,71.50
2018-07-07T03:23:13.721Z,72.20
2018-07-07T03:25:43.533Z,72.80
2018-07-07T03:28:13.195Z,74.20
2018-07-07T03:30:43.101Z,74.60
2018-07-07T03:33:12.793Z,74.90
2018-07-07T03:35:42.462Z,73.80
2018-07-07T03:38:12.721Z,73.70
2018-07-07T03:40:42.545Z,72.50
2018-07-07T03:43:12.094Z,72.10
2018-07-07T03:45:41.704Z,71.90
2018-07-07T03:48:11.524Z,72.20
2018-07-07T03:50:41.048Z,72.20
2018-07-07T03:53:10.870Z,74.20
2018-07-07T03:55:40.997Z,74.90
2018-07-07T03:58:11.319Z,72.40
2018-07-07T04:00:40.805Z,72.30
2018-07-07T04:03:10.415Z,71.00
2018-07-07T04:05:40.567Z,72.30
2018-07-07T04:08:10.486Z,73.10
2018-07-07T04:10:40.036Z,72.10
2018-07-07T04:13:09.721Z,72.50
2018-07-07T04:15:39.175Z,72.70
2018-07-07T04:18:08.764Z,72.70
2018-07-07T04:20:38.272Z,72.20
2018-07-07T04:23:08.823Z,73.40
2018-07-07T04:25:38.420Z,71.50
2018-07-07T04:28:07.996Z,71.70
2018-07-07T04:30:37.651Z,72.10
2018-07-07T04:33:07.136Z,72.20
2018-07-07T04:35:36.635Z,71.90
2018-07-07T04:38:06.220Z,72.70
2018-07-07T04:40:36.717Z,71.90
2018-07-07T04:43:06.427Z,71.80
2018-07-07T04:45:36.169Z,73.20
2018-07-07T04:48:06.408Z,74.20
2018-07-07T04:50:37.776Z,72.70
2018-07-07T04:53:07.350Z,75.20
2018-07-07T04:55:37.180Z,74.30
2018-07-07T04:58:11.108Z,74.20
2018-07-07T05:00:43.073Z,74.50
2018-07-07T05:03:13.805Z,74.60
2018-07-07T05:08:49.245Z,74.50
2018-07-07T05:14:14.231Z,74.70
2018-07-07T05:16:44.574Z,75.80
2018-07-07T05:19:13.945Z,75.50
2018-07-07T05:21:44.291Z,76.40
2018-07-07T05:24:13.705Z,74.60
2018-07-07T05:26:43.083Z,74.30
2018-07-07T05:29:12.550Z,75.00
2018-07-07T05:31:42.175Z,74.20
2018-07-07T05:34:11.467Z,73.20
2018-07-07T05:36:40.833Z,73.20
2018-07-07T05:39:10.157Z,73.90
2018-07-07T05:41:39.682Z,72.00
2018-07-07T05:44:09.099Z,72.00
2018-07-07T05:46:38.490Z,74.70
2018-07-07T05:49:07.934Z,74.90
2018-07-07T05:51:37.388Z,72.70
2018-07-07T05:54:06.797Z,72.20
2018-07-07T05:56:36.218Z,71.30
2018-07-07T05:59:05.768Z,70.80
2018-07-07T06:01:35.256Z,72.00
2018-07-07T06:06:33.555Z,69.60
2018-07-07T06:09:02.996Z,67.90
2018-07-07T06:11:32.549Z,69.00
2018-07-07T06:14:02.373Z,69.10
2018-07-07T06:16:31.923Z,70.50
2018-07-07T06:19:01.378Z,70.20
2018-07-07T06:21:31.244Z,68.50
2018-07-07T06:24:00.672Z,69.00
2018-07-07T06:26:30.181Z,68.00
2018-07-07T06:28:59.676Z,67.70
2018-07-07T06:33:59.420Z,65.00
2018-07-07T06:36:29.304Z,65.30
2018-07-07T06:38:58.755Z,62.70
2018-07-07T06:41:28.139Z,62.50
2018-07-07T06:43:57.622Z,62.10
2018-07-07T06:46:27.929Z,62.70
2018-07-07T06:48:57.519Z,62.90
2018-07-07T06:51:26.966Z,63.60
2018-07-07T06:53:56.816Z,62.80
2018-07-07T06:56:26.136Z,61.90
2018-07-07T06:58:55.537Z,61.90
2018-07-07T07:01:24.938Z,59.50
2018-07-07T07:03:54.317Z,58.10
2018-07-07T07:06:23.897Z,57.90
2018-07-07T07:08:53.365Z,57.00
2018-07-07T07:11:23.085Z,57.70
2018-07-07T07:13:53.121Z,57.00
2018-07-07T07:16:23.192Z,54.70
2018-07-07T07:18:52.559Z,54.30
2018-07-07T07:21:22.035Z,54.60
2018-07-07T07:23:51.511Z,52.40
2018-07-07T07:26:20.924Z,51.20
2018-07-07T07:28:50.331Z,47.30
2018-07-07T07:31:19.669Z,47.10
2018-07-07T07:33:49.005Z,42.90
2018-07-07T07:36:28.483Z,42.90
2018-07-07T07:38:57.840Z,45.40
2018-07-07T07:41:27.224Z,42.10
2018-07-07T07:43:56.567Z,44.70
2018-07-07T07:46:25.883Z,42.60
2018-07-07T07:48:55.498Z,42.70
2018-07-07T07:51:24.917Z,43.80
2018-07-07T07:53:54.374Z,42.50
2018-07-07T07:56:23.744Z,43.80
2018-07-07T07:58:53.236Z,43.90
2018-07-07T08:01:22.953Z,43.60
2018-07-07T08:03:52.259Z,42.50
2018-07-07T08:06:21.971Z,45.70
2018-07-07T08:08:51.364Z,45.40
2018-07-07T08:11:20.818Z,45.80
2018-07-07T08:13:50.349Z,44.60
2018-07-07T08:16:23.855Z,44.30
2018-07-07T08:18:53.400Z,45.30
2018-07-07T08:21:22.820Z,45.60
2018-07-07T08:23:53.401Z,43.60
2018-07-07T08:26:23.565Z,42.50
2018-07-07T08:28:52.970Z,43.70
2018-07-07T08:31:23.581Z,43.90
2018-07-07T08:36:34.749Z,43.70
2018-07-07T08:39:04.728Z,43.90
2018-07-07T08:41:34.642Z,42.80
2018-07-07T08:44:04.587Z,42.70
2018-07-07T08:46:34.004Z,45.20
2018-07-07T08:49:03.599Z,44.50
2018-07-07T08:51:33.938Z,42.70
2018-07-07T08:54:03.251Z,42.80
2018-07-07T08:56:42.672Z,44.00
2018-07-07T08:59:13.541Z,43.10
2018-07-07T09:01:44.625Z,42.80
2018-07-07T09:04:15.439Z,42.60
2018-07-07T09:06:49.181Z,42.60
2018-07-07T09:09:22.004Z,42.90
2018-07-07T09:11:59.784Z,43.00
2018-07-07T09:14:37.289Z,42.70
2018-07-07T09:17:09.259Z,42.30
2018-07-07T09:19:40.040Z,40.30
2018-07-07T09:22:10.995Z,41.90
2018-07-07T09:24:42.951Z,42.40
2018-07-07T09:27:12.949Z,43.30
2018-07-07T09:29:45.518Z,41.90
2018-07-07T09:32:18.868Z,42.50
2018-07-07T09:34:53.476Z,42.50
2018-07-07T09:37:29.258Z,40.90
2018-07-07T09:40:11.390Z,42.20
2018-07-07T09:42:48.025Z,40.70
2018-07-07T09:45:41.140Z,39.30
2018-07-07T09:51:05.489Z,42.00
2018-07-07T09:54:20.345Z,42.00
2018-07-07T10:05:16.813Z,41.80
2018-07-07T10:10:47.322Z,41.00
2018-07-07T10:13:38.462Z,41.70
2018-07-07T10:18:55.456Z,41.90
2018-07-07T10:25:24.357Z,43.40
2018-07-07T10:27:56.213Z,40.80
2018-07-07T10:30:28.536Z,40.70
2018-07-07T10:33:05.796Z,40.50
2018-07-07T10:35:46.265Z,40.50
2018-07-07T10:38:22.510Z,41.20
2018-07-07T10:40:58.367Z,41.00
2018-07-07T10:50:39.742Z,40.00
2018-07-07T10:53:17.462Z,41.40
2018-07-07T11:03:22.911Z,39.70
2018-07-07T11:09:01.434Z,39.20
2018-07-07T11:11:30.695Z,39.80
2018-07-07T11:14:00.028Z,39.10
2018-07-07T11:16:29.328Z,38.80
2018-07-07T11:18:58.582Z,38.90
2018-07-07T11:21:27.888Z,37.70
2018-07-07T11:23:57.729Z,37.30
2018-07-07T11:26:26.951Z,37.80
2018-07-07T11:28:56.175Z,38.40
2018-07-07T11:31:25.427Z,37.70
2018-07-07T11:33:54.659Z,37.70
2018-07-07T11:36:24.146Z,38.10
2018-07-07T11:38:53.840Z,38.00
2018-07-07T11:41:23.751Z,37.40
2018-07-07T11:43:54.387Z,37.50
2018-07-07T11:46:23.742Z,38.00
2018-07-07T11:48:53.068Z,36.90
2018-07-07T11:51:22.343Z,37.90
2018-07-07T11:53:51.633Z,38.00
2018-07-07T11:56:20.923Z,38.80
2018-07-07T11:58:50.208Z,37.70
2018-07-07T12:01:19.475Z,37.90
2018-07-07T12:03:48.818Z,39.40
2018-07-07T12:06:18.154Z,38.00
2018-07-07T12:08:47.514Z,38.00
2018-07-07T12:11:16.999Z,38.00
2018-07-07T12:13:46.328Z,37.80
2018-07-07T12:16:15.612Z,37.30
2018-07-07T12:18:44.846Z,38.60
2018-07-07T12:21:14.324Z,38.10
2018-07-07T12:23:43.666Z,38.00
2018-07-07T12:26:12.967Z,38.50
2018-07-07T12:28:42.232Z,38.00
2018-07-07T12:31:11.546Z,38.00
2018-07-07T12:33:40.817Z,37.40
2018-07-07T12:36:10.176Z,38.40
2018-07-07T12:38:39.893Z,37.70
2018-07-07T12:41:09.219Z,37.30
2018-07-07T12:43:39.336Z,37.80
2018-07-07T12:46:08.657Z,37.70
2018-07-07T12:48:37.928Z,37.70
2018-07-07T12:51:07.320Z,38.30
2018-07-07T12:53:36.690Z,39.70
2018-07-07T12:56:06.001Z,37.80
2018-07-07T12:58:35.297Z,37.40
2018-07-07T13:01:04.599Z,38.30
2018-07-07T13:03:33.820Z,39.10
2018-07-07T13:06:03.240Z,38.50
2018-07-07T13:08:32.622Z,39.10
2018-07-07T13:11:01.935Z,38.20
2018-07-07T13:13:31.227Z,38.60
2018-07-07T13:16:00.515Z,38.70
2018-07-07T13:18:29.917Z,38.60
2018-07-07T13:20:59.368Z,37.50
2018-07-07T13:23:29.273Z,37.70
2018-07-07T13:28:27.390Z,38.30
2018-07-07T13:30:56.707Z,38.80
2018-07-07T13:33:26.071Z,38.10
2018-07-07T13:35:55.711Z,38.50
2018-07-07T13:38:24.950Z,38.20
2018-07-07T13:40:54.277Z,39.10
2018-07-07T13:43:23.547Z,38.70
2018-07-07T13:45:53.492Z,39.10
2018-07-07T13:48:23.146Z,38.60
2018-07-07T13:50:52.401Z,38.50
2018-07-07T13:53:21.712Z,39.40
2018-07-07T13:55:51.737Z,38.60
2018-07-07T13:58:21.268Z,38.60
2018-07-07T14:00:50.552Z,38.30
2018-07-07T14:03:19.846Z,39.30
2018-07-07T14:05:49.103Z,40.30
2018-07-07T14:08:18.377Z,40.10
2018-07-07T14:10:48.704Z,39.50
2018-07-07T14:13:18.000Z,39.70
2018-07-07T14:15:47.298Z,40.50
2018-07-07T14:18:17.028Z,39.90
2018-07-07T14:20:46.308Z,39.70
2018-07-07T14:23:15.596Z,39.70
2018-07-07T14:25:44.945Z,39.20
2018-07-07T14:28:14.282Z,39.30
2018-07-07T14:30:43.555Z,40.50
2018-07-07T14:33:12.933Z,40.80
2018-07-07T14:35:42.305Z,41.20
2018-07-07T14:38:11.550Z,39.70
2018-07-07T14:43:15.305Z,41.10
2018-07-07T14:45:54.547Z,40.70
2018-07-07T14:48:23.841Z,40.80
2018-07-07T14:50:53.075Z,41.20
2018-07-07T14:53:22.391Z,41.40
2018-07-07T14:55:51.640Z,41.20
2018-07-07T14:58:21.554Z,41.00
2018-07-07T15:00:50.796Z,42.00
2018-07-07T15:03:20.092Z,41.80
2018-07-07T15:05:49.380Z,40.90
2018-07-07T15:08:18.746Z,41.70
2018-07-07T15:10:48.185Z,42.00
2018-07-07T15:13:17.456Z,42.90
2018-07-07T15:15:46.707Z,43.00
2018-07-07T15:18:16.044Z,42.90
2018-07-07T15:20:45.357Z,44.90
2018-07-07T15:23:14.619Z,45.40
2018-07-07T15:25:43.896Z,44.30
2018-07-07T15:28:13.144Z,45.40
2018-07-07T15:30:42.441Z,45.00
2018-07-07T15:33:11.754Z,44.40
2018-07-07T15:35:41.023Z,45.20
2018-07-07T15:38:10.359Z,44.10
2018-07-07T15:40:39.783Z,44.40
2018-07-07T15:43:09.149Z,44.90
2018-07-07T15:45:38.879Z,45.50
2018-07-07T15:48:08.172Z,46.20
2018-07-07T15:50:38.378Z,46.40
2018-07-07T15:53:07.661Z,46.20
2018-07-07T15:55:37.374Z,46.20
2018-07-07T15:58:06.637Z,47.00
2018-07-07T16:00:36.012Z,46.60
2018-07-07T16:03:05.479Z,47.10
2018-07-07T16:05:34.785Z,45.50
2018-07-07T16:08:04.076Z,47.30
2018-07-07T16:10:34.049Z,47.00
2018-07-07T16:13:03.300Z,46.40
2018-07-07T16:15:32.565Z,47.60
2018-07-07T16:18:01.916Z,47.00
2018-07-07T16:20:31.237Z,47.00
2018-07-07T16:23:00.551Z,47.40
2018-07-07T16:25:29.837Z,49.70
2018-07-07T16:27:59.254Z,49.40
2018-07-07T16:30:28.583Z,49.30
2018-07-07T16:32:58.048Z,48.60
2018-07-07T16:35:27.347Z,49.00
2018-07-07T16:37:56.620Z,49.10
2018-07-07T16:40:25.959Z,49.00
2018-07-07T16:42:55.340Z,48.80
2018-07-07T16:45:24.744Z,49.80
2018-07-07T16:47:54.102Z,49.40
2018-07-07T16:50:23.464Z,50.30
2018-07-07T16:52:52.916Z,49.70
2018-07-07T16:55:22.237Z,49.50
2018-07-07T16:57:51.551Z,49.90
2018-07-07T17:00:21.713Z,50.50
2018-07-07T17:02:51.528Z,50.70
2018-07-07T17:05:20.871Z,50.00
2018-07-07T17:07:50.440Z,50.40
2018-07-07T17:10:20.282Z,50.50
2018-07-07T17:12:49.574Z,51.40
2018-07-07T17:15:18.929Z,51.30
2018-07-07T17:17:48.524Z,51.10
2018-07-07T17:20:17.884Z,51.60
2018-07-07T17:22:48.387Z,51.60
2018-07-07T17:25:17.892Z,52.10
2018-07-07T17:27:47.191Z,51.30
2018-07-07T17:30:16.572Z,51.50
2018-07-07T17:32:45.898Z,51.70
2018-07-07T17:35:16.181Z,51.70
2018-07-07T17:37:45.543Z,52.20
2018-07-07T17:40:15.058Z,52.30
2018-07-07T17:42:44.756Z,52.50
2018-07-07T17:45:14.138Z,53.00
2018-07-07T17:47:43.508Z,52.80
2018-07-07T17:50:13.267Z,53.70
2018-07-07T17:52:42.669Z,54.10
2018-07-07T17:55:12.032Z,54.90
2018-07-07T17:57:42.578Z,54.90
2018-07-07T18:00:12.438Z,55.60
2018-07-07T18:02:41.706Z,55.40
2018-07-07T18:05:10.993Z,55.80
2018-07-07T18:07:40.243Z,56.60
2018-07-07T18:10:09.622Z,56.50
2018-07-07T18:12:38.896Z,56.80
2018-07-07T18:15:08.218Z,57.20
2018-07-07T18:17:38.189Z,56.90
2018-07-07T18:20:07.515Z,57.40
2018-07-07T18:22:36.797Z,57.90
2018-07-07T18:25:06.398Z,57.80
2018-07-07T18:27:36.382Z,57.80
2018-07-07T18:30:05.684Z,58.30
2018-07-07T18:32:34.898Z,58.80
2018-07-07T18:35:04.244Z,58.60
2018-07-07T18:37:33.673Z,58.80
2018-07-07T18:40:02.909Z,59.00
2018-07-07T18:42:32.822Z,59.20
2018-07-07T18:45:02.153Z,59.80
2018-07-07T18:47:31.889Z,60.60
2018-07-07T18:50:01.292Z,60.90
2018-07-07T18:52:31.224Z,61.60
2018-07-07T18:55:00.529Z,62.00
2018-07-07T18:57:30.415Z,62.40
2018-07-07T18:59:59.952Z,63.10
2018-07-07T19:02:29.414Z,63.50
2018-07-07T19:04:58.686Z,64.30
2018-07-07T19:07:28.013Z,64.20
2018-07-07T19:09:58.183Z,65.10
2018-07-07T19:12:27.569Z,65.50
2018-07-07T19:15:29.292Z,65.50
2018-07-07T19:17:58.592Z,65.80
2018-07-07T19:20:34.044Z,66.10
2018-07-07T19:23:08.537Z,66.60
2018-07-07T19:28:12.095Z,66.70
2018-07-07T19:30:41.419Z,67.70
2018-07-07T19:33:15.829Z,67.70
2018-07-07T19:35:50.433Z,68.20
2018-07-07T19:38:20.981Z,68.80
2018-07-07T19:40:50.316Z,69.20
2018-07-07T19:43:19.584Z,69.60
2018-07-07T19:45:49.049Z,70.00
2018-07-07T19:48:18.584Z,70.50
2018-07-07T19:50:48.255Z,71.20
2018-07-07T19:53:18.636Z,72.10
2018-07-07T19:55:48.309Z,72.30
2018-07-07T19:58:18.488Z,72.00
2018-07-07T20:00:47.820Z,72.20
2018-07-07T20:03:17.124Z,72.90
2018-07-07T20:05:46.413Z,72.90
2018-07-07T20:08:15.940Z,72.70
2018-07-07T20:10:45.593Z,73.60
2018-07-07T20:13:15.699Z,74.00
2018-07-07T20:16:09.958Z,73.70
2018-07-07T20:18:54.728Z,74.90
2018-07-07T20:21:40.674Z,74.80
2018-07-07T20:24:10.005Z,75.80
2018-07-07T20:26:44.225Z,77.20
2018-07-07T20:29:13.516Z,77.50
2018-07-07T20:31:49.500Z,77.70
2018-07-07T20:34:26.773Z,77.60
2018-07-07T20:36:56.178Z,78.10
2018-07-07T20:39:25.658Z,78.60
2018-07-07T20:41:55.803Z,78.50
2018-07-07T20:44:25.076Z,78.60
2018-07-07T20:46:54.380Z,79.20
2018-07-07T20:49:23.855Z,79.00
2018-07-07T20:51:53.359Z,79.70
2018-07-07T20:56:52.372Z,80.50
2018-07-07T20:59:21.748Z,80.90
2018-07-07T21:01:51.092Z,80.90
2018-07-07T21:04:20.293Z,81.90
2018-07-07T21:06:49.650Z,82.00
2018-07-07T21:09:19.020Z,81.80
2018-07-07T21:11:48.308Z,82.40
2018-07-07T21:14:17.628Z,82.20
2018-07-07T21:16:46.872Z,82.90
2018-07-07T21:19:16.280Z,82.60
2018-07-07T21:21:45.675Z,82.80
2018-07-07T21:24:15.245Z,83.40
2018-07-07T21:26:45.136Z,84.10
2018-07-07T21:29:14.423Z,84.50
2018-07-07T21:31:43.838Z,85.40
2018-07-07T21:34:13.143Z,85.60
2018-07-07T21:36:43.050Z,86.50
2018-07-07T21:39:12.797Z,86.90
2018-07-07T21:41:42.048Z,87.70
2018-07-07T21:44:12.071Z,87.20
2018-07-07T21:46:41.374Z,86.90
2018-07-07T21:49:11.069Z,86.40
2018-07-07T21:51:40.343Z,86.20
2018-07-07T21:54:09.652Z,86.40
2018-07-07T21:56:38.964Z,86.90
2018-07-07T21:59:13.500Z,87.30
2018-07-07T22:02:03.312Z,88.40
2018-07-07T22:04:38.015Z,88.70
2018-07-07T22:07:13.615Z,89.00
2018-07-07T22:09:43.707Z,89.20
2018-07-07T22:12:13.079Z,89.40
2018-07-07T22:14:42.520Z,89.80
2018-07-07T22:17:11.796Z,89.70
2018-07-07T22:19:41.801Z,90.00
2018-07-07T22:22:12.499Z,90.10
2018-07-07T22:24:43.000Z,90.30
2018-07-07T22:27:13.558Z,90.20
2018-07-07T22:29:42.842Z,90.20
2018-07-07T22:32:17.480Z,90.00
2018-07-07T22:34:46.819Z,89.60
2018-07-07T22:37:16.241Z,90.00
2018-07-07T22:39:46.112Z,90.50
2018-07-07T22:42:16.687Z,90.70
2018-07-07T22:44:47.120Z,90.90
2018-07-07T22:47:16.407Z,91.10
2018-07-07T22:49:45.705Z,91.40
2018-07-07T22:52:14.981Z,91.40
2018-07-07T22:54:44.316Z,91.20
2018-07-07T22:57:13.634Z,91.40
2018-07-07T22:59:42.997Z,91.60
2018-07-07T23:02:12.240Z,91.80
2018-07-07T23:04:42.447Z,92.20
2018-07-07T23:07:11.727Z,92.60
2018-07-07T23:09:41.067Z,92.70
2018-07-07T23:12:10.350Z,92.70
2018-07-07T23:14:39.716Z,92.90
2018-07-07T23:17:08.988Z,92.70
2018-07-07T23:19:38.236Z,92.60
2018-07-07T23:22:07.821Z,92.50
2018-07-07T23:24:37.686Z,92.70
2018-07-07T23:27:07.002Z,93.20
2018-07-07T23:29:36.987Z,93.10
2018-07-07T23:32:06.320Z,93.30
2018-07-07T23:34:35.879Z,93.20
2018-07-07T23:37:05.716Z,93.20
2018-07-07T23:39:34.968Z,93.20
2018-07-07T23:42:04.425Z,93.60
2018-07-07T23:44:33.693Z,93.90
2018-07-07T23:47:02.937Z,93.60
2018-07-07T23:49:32.239Z,93.60
2018-07-07T23:52:01.455Z,93.80
2018-07-07T23:54:31.355Z,93.90
2018-07-07T23:57:00.637Z,94.40
2018-07-07T23:59:29.967Z,94.00
